sensor_id;sensor_type;location;lat;lon;timestamp;P1;durP1;ratioP1;P2;durP2;ratioP2
75760;SDS011;64373;46.136;8.830;2023-07-29T00:02:10;4.30;;;3.90;;
75760;SDS011;64373;46.136;8.830;2023-07-29T00:04:36;3.95;;;2.92;;
75760;SDS011;64373;46.136;8.830;2023-07-29T00:07:01;2.65;;;2.42;;
75760;SDS011;64373;46.136;8.830;2023-07-29T00:09:27;4.05;;;2.78;;
75760;SDS011;64373;46.136;8.830;2023-07-29T00:11:53;3.75;;;3.05;;
75760;SDS011;64373;46.136;8.830;2023-07-29T00:14:18;3.38;;;3.08;;
75760;SDS011;64373;46.136;8.830;2023-07-29T00:16:44;3.85;;;3.45;;
75760;SDS011;64373;46.136;8.830;2023-07-29T00:19:09;3.38;;;2.72;;
75760;SDS011;64373;46.136;8.830;2023-07-29T00:21:35;4.80;;;3.60;;
75760;SDS011;64373;46.136;8.830;2023-07-29T00:24:00;4.80;;;3.83;;
75760;SDS011;64373;46.136;8.830;2023-07-29T00:26:26;4.20;;;3.20;;
75760;SDS011;64373;46.136;8.830;2023-07-29T00:28:54;3.35;;;3.05;;
75760;SDS011;64373;46.136;8.830;2023-07-29T00:31:23;2.67;;;2.47;;
75760;SDS011;64373;46.136;8.830;2023-07-29T00:33:48;4.07;;;3.00;;
75760;SDS011;64373;46.136;8.830;2023-07-29T00:36:14;3.33;;;2.40;;
75760;SDS011;64373;46.136;8.830;2023-07-29T00:38:39;2.88;;;2.58;;
75760;SDS011;64373;46.136;8.830;2023-07-29T00:41:05;2.60;;;2.40;;
75760;SDS011;64373;46.136;8.830;2023-07-29T00:43:31;2.65;;;2.38;;
75760;SDS011;64373;46.136;8.830;2023-07-29T00:45:56;3.72;;;2.60;;
75760;SDS011;64373;46.136;8.830;2023-07-29T00:48:23;3.33;;;2.53;;
75760;SDS011;64373;46.136;8.830;2023-07-29T00:50:49;3.72;;;3.00;;
75760;SDS011;64373;46.136;8.830;2023-07-29T00:53:15;3.20;;;2.90;;
75760;SDS011;64373;46.136;8.830;2023-07-29T00:55:41;3.10;;;2.83;;
75760;SDS011;64373;46.136;8.830;2023-07-29T00:58:07;3.50;;;3.20;;
75760;SDS011;64373;46.136;8.830;2023-07-29T01:00:32;2.60;;;2.40;;
75760;SDS011;64373;46.136;8.830;2023-07-29T01:02:58;2.78;;;2.50;;
75760;SDS011;64373;46.136;8.830;2023-07-29T01:05:24;3.00;;;2.60;;
75760;SDS011;64373;46.136;8.830;2023-07-29T01:12:54;3.53;;;2.80;;
75760;SDS011;64373;46.136;8.830;2023-07-29T01:18:08;3.25;;;2.83;;
75760;SDS011;64373;46.136;8.830;2023-07-29T01:20:37;3.45;;;3.15;;
75760;SDS011;64373;46.136;8.830;2023-07-29T01:23:04;2.50;;;2.30;;
75760;SDS011;64373;46.136;8.830;2023-07-29T01:25:30;2.85;;;2.58;;
75760;SDS011;64373;46.136;8.830;2023-07-29T01:27:55;3.08;;;2.78;;
75760;SDS011;64373;46.136;8.830;2023-07-29T01:30:22;3.10;;;2.80;;
75760;SDS011;64373;46.136;8.830;2023-07-29T01:37:46;2.60;;;2.40;;
75760;SDS011;64373;46.136;8.830;2023-07-29T01:40:14;3.38;;;2.50;;
75760;SDS011;64373;46.136;8.830;2023-07-29T01:42:40;4.20;;;3.03;;
75760;SDS011;64373;46.136;8.830;2023-07-29T01:45:06;3.45;;;2.85;;
75760;SDS011;64373;46.136;8.830;2023-07-29T01:47:32;5.65;;;3.35;;
75760;SDS011;64373;46.136;8.830;2023-07-29T01:49:57;3.90;;;3.50;;
75760;SDS011;64373;46.136;8.830;2023-07-29T01:52:23;3.45;;;3.15;;
75760;SDS011;64373;46.136;8.830;2023-07-29T01:54:48;4.00;;;3.53;;
75760;SDS011;64373;46.136;8.830;2023-07-29T01:57:14;3.40;;;3.10;;
75760;SDS011;64373;46.136;8.830;2023-07-29T01:59:39;4.90;;;3.40;;
75760;SDS011;64373;46.136;8.830;2023-07-29T02:02:05;3.47;;;3.13;;
75760;SDS011;64373;46.136;8.830;2023-07-29T02:04:31;3.85;;;3.45;;
75760;SDS011;64373;46.136;8.830;2023-07-29T02:06:56;3.65;;;3.15;;
75760;SDS011;64373;46.136;8.830;2023-07-29T02:09:22;4.13;;;3.53;;
75760;SDS011;64373;46.136;8.830;2023-07-29T02:11:47;3.53;;;3.20;;
75760;SDS011;64373;46.136;8.830;2023-07-29T02:14:13;3.10;;;2.80;;
75760;SDS011;64373;46.136;8.830;2023-07-29T02:16:38;3.10;;;2.80;;
75760;SDS011;64373;46.136;8.830;2023-07-29T02:19:04;3.03;;;2.67;;
75760;SDS011;64373;46.136;8.830;2023-07-29T02:21:30;2.70;;;2.50;;
75760;SDS011;64373;46.136;8.830;2023-07-29T02:23:55;3.20;;;2.90;;
75760;SDS011;64373;46.136;8.830;2023-07-29T02:26:21;3.50;;;2.90;;
75760;SDS011;64373;46.136;8.830;2023-07-29T02:28:47;2.60;;;2.40;;
75760;SDS011;64373;46.136;8.830;2023-07-29T02:31:16;2.20;;;1.95;;
75760;SDS011;64373;46.136;8.830;2023-07-29T02:33:44;2.65;;;2.45;;
75760;SDS011;64373;46.136;8.830;2023-07-29T02:36:11;3.63;;;2.83;;
75760;SDS011;64373;46.136;8.830;2023-07-29T02:38:37;3.40;;;2.67;;
75760;SDS011;64373;46.136;8.830;2023-07-29T02:41:03;2.55;;;2.35;;
75760;SDS011;64373;46.136;8.830;2023-07-29T02:43:28;4.75;;;3.00;;
75760;SDS011;64373;46.136;8.830;2023-07-29T02:45:54;3.72;;;3.08;;
75760;SDS011;64373;46.136;8.830;2023-07-29T02:48:19;2.58;;;2.30;;
75760;SDS011;64373;46.136;8.830;2023-07-29T02:50:45;3.35;;;3.05;;
75760;SDS011;64373;46.136;8.830;2023-07-29T02:53:10;2.90;;;2.60;;
75760;SDS011;64373;46.136;8.830;2023-07-29T02:55:39;4.00;;;3.05;;
75760;SDS011;64373;46.136;8.830;2023-07-29T02:58:05;3.42;;;3.03;;
75760;SDS011;64373;46.136;8.830;2023-07-29T03:00:32;3.20;;;2.90;;
75760;SDS011;64373;46.136;8.830;2023-07-29T03:02:58;3.10;;;2.80;;
75760;SDS011;64373;46.136;8.830;2023-07-29T03:05:24;2.85;;;2.53;;
75760;SDS011;64373;46.136;8.830;2023-07-29T03:07:49;3.83;;;3.00;;
75760;SDS011;64373;46.136;8.830;2023-07-29T03:10:15;3.00;;;2.70;;
75760;SDS011;64373;46.136;8.830;2023-07-29T03:12:40;3.55;;;2.95;;
75760;SDS011;64373;46.136;8.830;2023-07-29T03:15:06;4.05;;;3.55;;
75760;SDS011;64373;46.136;8.830;2023-07-29T03:17:32;3.70;;;3.38;;
75760;SDS011;64373;46.136;8.830;2023-07-29T03:19:58;4.13;;;3.78;;
75760;SDS011;64373;46.136;8.830;2023-07-29T03:22:23;4.10;;;3.58;;
75760;SDS011;64373;46.136;8.830;2023-07-29T03:24:49;4.25;;;3.47;;
75760;SDS011;64373;46.136;8.830;2023-07-29T03:27:14;4.03;;;3.60;;
75760;SDS011;64373;46.136;8.830;2023-07-29T03:29:41;6.10;;;3.90;;
75760;SDS011;64373;46.136;8.830;2023-07-29T03:32:07;4.45;;;4.05;;
75760;SDS011;64373;46.136;8.830;2023-07-29T03:34:33;4.57;;;4.18;;
75760;SDS011;64373;46.136;8.830;2023-07-29T03:36:59;3.85;;;3.38;;
75760;SDS011;64373;46.136;8.830;2023-07-29T03:39:26;3.38;;;3.08;;
75760;SDS011;64373;46.136;8.830;2023-07-29T03:41:51;3.40;;;3.00;;
75760;SDS011;64373;46.136;8.830;2023-07-29T03:44:17;3.13;;;2.83;;
75760;SDS011;64373;46.136;8.830;2023-07-29T03:46:44;3.78;;;3.45;;
75760;SDS011;64373;46.136;8.830;2023-07-29T03:49:10;3.65;;;3.30;;
75760;SDS011;64373;46.136;8.830;2023-07-29T03:51:36;4.35;;;3.30;;
75760;SDS011;64373;46.136;8.830;2023-07-29T03:54:01;3.40;;;2.80;;
75760;SDS011;64373;46.136;8.830;2023-07-29T03:56:27;3.83;;;3.42;;
75760;SDS011;64373;46.136;8.830;2023-07-29T03:58:52;3.30;;;3.00;;
75760;SDS011;64373;46.136;8.830;2023-07-29T04:01:18;2.53;;;2.30;;
75760;SDS011;64373;46.136;8.830;2023-07-29T04:03:45;2.63;;;2.42;;
75760;SDS011;64373;46.136;8.830;2023-07-29T04:06:11;2.92;;;2.67;;
75760;SDS011;64373;46.136;8.830;2023-07-29T04:08:37;2.67;;;2.47;;
75760;SDS011;64373;46.136;8.830;2023-07-29T04:11:02;2.97;;;2.67;;
75760;SDS011;64373;46.136;8.830;2023-07-29T04:13:28;2.67;;;2.40;;
75760;SDS011;64373;46.136;8.830;2023-07-29T04:15:53;3.55;;;3.25;;
75760;SDS011;64373;46.136;8.830;2023-07-29T04:18:20;3.05;;;2.72;;
75760;SDS011;64373;46.136;8.830;2023-07-29T04:20:46;3.40;;;3.10;;
75760;SDS011;64373;46.136;8.830;2023-07-29T04:23:11;3.25;;;2.95;;
75760;SDS011;64373;46.136;8.830;2023-07-29T04:25:37;2.78;;;2.58;;
75760;SDS011;64373;46.136;8.830;2023-07-29T04:28:02;3.35;;;3.05;;
75760;SDS011;64373;46.136;8.830;2023-07-29T04:30:29;3.17;;;2.85;;
75760;SDS011;64373;46.136;8.830;2023-07-29T04:32:55;4.40;;;3.63;;
75760;SDS011;64373;46.136;8.830;2023-07-29T04:35:20;4.32;;;3.70;;
75760;SDS011;64373;46.136;8.830;2023-07-29T04:37:46;3.78;;;3.40;;
75760;SDS011;64373;46.136;8.830;2023-07-29T04:40:13;4.20;;;3.80;;
75760;SDS011;64373;46.136;8.830;2023-07-29T04:42:39;3.78;;;3.47;;
75760;SDS011;64373;46.136;8.830;2023-07-29T04:45:05;3.33;;;3.03;;
75760;SDS011;64373;46.136;8.830;2023-07-29T04:47:30;3.22;;;2.92;;
75760;SDS011;64373;46.136;8.830;2023-07-29T04:49:56;3.50;;;3.20;;
75760;SDS011;64373;46.136;8.830;2023-07-29T04:52:22;2.97;;;2.67;;
75760;SDS011;64373;46.136;8.830;2023-07-29T04:54:47;2.83;;;2.55;;
75760;SDS011;64373;46.136;8.830;2023-07-29T04:57:13;4.50;;;3.45;;
75760;SDS011;64373;46.136;8.830;2023-07-29T04:59:38;3.97;;;3.58;;
75760;SDS011;64373;46.136;8.830;2023-07-29T05:02:04;5.30;;;4.13;;
75760;SDS011;64373;46.136;8.830;2023-07-29T05:04:30;5.85;;;3.85;;
75760;SDS011;64373;46.136;8.830;2023-07-29T05:06:55;4.20;;;3.83;;
75760;SDS011;64373;46.136;8.830;2023-07-29T05:09:21;4.60;;;4.15;;
75760;SDS011;64373;46.136;8.830;2023-07-29T05:11:46;4.60;;;4.20;;
75760;SDS011;64373;46.136;8.830;2023-07-29T05:14:13;4.95;;;4.55;;
75760;SDS011;64373;46.136;8.830;2023-07-29T05:16:38;5.35;;;4.60;;
75760;SDS011;64373;46.136;8.830;2023-07-29T05:19:04;4.90;;;4.40;;
75760;SDS011;64373;46.136;8.830;2023-07-29T05:21:30;5.15;;;4.63;;
75760;SDS011;64373;46.136;8.830;2023-07-29T05:23:55;6.15;;;4.72;;
75760;SDS011;64373;46.136;8.830;2023-07-29T05:26:21;6.80;;;4.70;;
75760;SDS011;64373;46.136;8.830;2023-07-29T05:28:47;5.13;;;4.60;;
75760;SDS011;64373;46.136;8.830;2023-07-29T05:31:13;5.00;;;4.55;;
75760;SDS011;64373;46.136;8.830;2023-07-29T05:33:38;5.95;;;4.72;;
75760;SDS011;64373;46.136;8.830;2023-07-29T05:36:04;5.78;;;4.53;;
75760;SDS011;64373;46.136;8.830;2023-07-29T05:38:30;6.00;;;4.45;;
75760;SDS011;64373;46.136;8.830;2023-07-29T05:40:56;5.32;;;4.82;;
75760;SDS011;64373;46.136;8.830;2023-07-29T05:43:24;5.03;;;4.53;;
75760;SDS011;64373;46.136;8.830;2023-07-29T05:45:49;5.88;;;4.20;;
75760;SDS011;64373;46.136;8.830;2023-07-29T05:48:16;4.82;;;3.78;;
75760;SDS011;64373;46.136;8.830;2023-07-29T05:50:41;3.55;;;3.22;;
75760;SDS011;64373;46.136;8.830;2023-07-29T05:53:07;4.05;;;3.63;;
75760;SDS011;64373;46.136;8.830;2023-07-29T05:55:33;3.55;;;3.05;;
75760;SDS011;64373;46.136;8.830;2023-07-29T05:57:58;3.03;;;2.78;;
75760;SDS011;64373;46.136;8.830;2023-07-29T06:00:24;3.72;;;3.42;;
75760;SDS011;64373;46.136;8.830;2023-07-29T06:02:49;3.40;;;3.10;;
75760;SDS011;64373;46.136;8.830;2023-07-29T06:05:15;3.72;;;3.40;;
75760;SDS011;64373;46.136;8.830;2023-07-29T06:07:40;3.95;;;3.65;;
75760;SDS011;64373;46.136;8.830;2023-07-29T06:10:09;4.50;;;4.10;;
75760;SDS011;64373;46.136;8.830;2023-07-29T06:12:37;3.47;;;3.03;;
75760;SDS011;64373;46.136;8.830;2023-07-29T06:15:03;3.17;;;2.88;;
75760;SDS011;64373;46.136;8.830;2023-07-29T06:17:30;3.85;;;3.50;;
75760;SDS011;64373;46.136;8.830;2023-07-29T06:19:55;3.75;;;3.28;;
75760;SDS011;64373;46.136;8.830;2023-07-29T06:22:21;3.60;;;3.30;;
75760;SDS011;64373;46.136;8.830;2023-07-29T06:24:46;4.57;;;4.18;;
75760;SDS011;64373;46.136;8.830;2023-07-29T06:27:12;4.90;;;4.50;;
75760;SDS011;64373;46.136;8.830;2023-07-29T06:29:37;3.85;;;3.50;;
75760;SDS011;64373;46.136;8.830;2023-07-29T06:32:03;4.05;;;3.65;;
75760;SDS011;64373;46.136;8.830;2023-07-29T06:34:29;4.18;;;3.83;;
75760;SDS011;64373;46.136;8.830;2023-07-29T06:36:54;4.80;;;4.40;;
75760;SDS011;64373;46.136;8.830;2023-07-29T06:39:20;4.90;;;3.78;;
75760;SDS011;64373;46.136;8.830;2023-07-29T06:41:45;4.63;;;4.22;;
75760;SDS011;64373;46.136;8.830;2023-07-29T06:44:11;4.25;;;3.67;;
75760;SDS011;64373;46.136;8.830;2023-07-29T06:46:36;4.05;;;3.65;;
75760;SDS011;64373;46.136;8.830;2023-07-29T06:49:02;5.13;;;4.40;;
75760;SDS011;64373;46.136;8.830;2023-07-29T06:51:27;6.28;;;5.05;;
75760;SDS011;64373;46.136;8.830;2023-07-29T06:53:57;4.78;;;4.38;;
75760;SDS011;64373;46.136;8.830;2023-07-29T06:56:23;4.65;;;4.20;;
75760;SDS011;64373;46.136;8.830;2023-07-29T06:58:48;5.75;;;4.82;;
75760;SDS011;64373;46.136;8.830;2023-07-29T07:01:19;4.80;;;4.03;;
75760;SDS011;64373;46.136;8.830;2023-07-29T07:03:50;5.45;;;4.30;;
75760;SDS011;64373;46.136;8.830;2023-07-29T07:06:19;5.32;;;4.57;;
75760;SDS011;64373;46.136;8.830;2023-07-29T07:08:46;4.75;;;4.00;;
75760;SDS011;64373;46.136;8.830;2023-07-29T07:11:13;4.82;;;4.22;;
75760;SDS011;64373;46.136;8.830;2023-07-29T07:13:38;4.55;;;4.13;;
75760;SDS011;64373;46.136;8.830;2023-07-29T07:16:04;4.47;;;4.07;;
75760;SDS011;64373;46.136;8.830;2023-07-29T07:18:29;4.15;;;3.75;;
75760;SDS011;64373;46.136;8.830;2023-07-29T07:20:55;6.03;;;4.40;;
75760;SDS011;64373;46.136;8.830;2023-07-29T07:23:20;4.65;;;4.25;;
75760;SDS011;64373;46.136;8.830;2023-07-29T07:25:46;4.85;;;4.45;;
75760;SDS011;64373;46.136;8.830;2023-07-29T07:28:11;5.30;;;4.80;;
75760;SDS011;64373;46.136;8.830;2023-07-29T07:30:40;5.38;;;4.88;;
75760;SDS011;64373;46.136;8.830;2023-07-29T07:33:08;4.82;;;4.43;;
75760;SDS011;64373;46.136;8.830;2023-07-29T07:35:35;5.68;;;5.07;;
75760;SDS011;64373;46.136;8.830;2023-07-29T07:38:01;4.60;;;4.18;;
75760;SDS011;64373;46.136;8.830;2023-07-29T07:40:32;7.32;;;4.82;;
75760;SDS011;64373;46.136;8.830;2023-07-29T07:42:58;5.90;;;4.03;;
75760;SDS011;64373;46.136;8.830;2023-07-29T07:45:24;4.88;;;3.85;;
75760;SDS011;64373;46.136;8.830;2023-07-29T07:47:51;4.25;;;3.85;;
75760;SDS011;64373;46.136;8.830;2023-07-29T07:50:19;4.40;;;4.00;;
75760;SDS011;64373;46.136;8.830;2023-07-29T07:52:45;4.97;;;4.43;;
75760;SDS011;64373;46.136;8.830;2023-07-29T07:55:10;4.68;;;4.25;;
75760;SDS011;64373;46.136;8.830;2023-07-29T07:57:37;4.63;;;4.22;;
75760;SDS011;64373;46.136;8.830;2023-07-29T08:00:02;3.95;;;3.65;;
75760;SDS011;64373;46.136;8.830;2023-07-29T08:02:30;4.35;;;3.95;;
75760;SDS011;64373;46.136;8.830;2023-07-29T08:05:02;3.40;;;3.10;;
75760;SDS011;64373;46.136;8.830;2023-07-29T08:07:34;5.15;;;4.63;;
75760;SDS011;64373;46.136;8.830;2023-07-29T08:10:00;5.60;;;5.00;;
75760;SDS011;64373;46.136;8.830;2023-07-29T08:12:26;4.88;;;4.32;;
75760;SDS011;64373;46.136;8.830;2023-07-29T08:14:51;4.85;;;4.32;;
75760;SDS011;64373;46.136;8.830;2023-07-29T08:17:17;5.22;;;4.72;;
75760;SDS011;64373;46.136;8.830;2023-07-29T08:19:49;5.05;;;4.55;;
75760;SDS011;64373;46.136;8.830;2023-07-29T08:22:18;4.90;;;4.40;;
75760;SDS011;64373;46.136;8.830;2023-07-29T08:28:05;4.78;;;4.25;;
75760;SDS011;64373;46.136;8.830;2023-07-29T08:30:31;4.47;;;4.05;;
75760;SDS011;64373;46.136;8.830;2023-07-29T08:32:57;4.88;;;4.45;;
75760;SDS011;64373;46.136;8.830;2023-07-29T08:35:22;4.30;;;3.92;;
75760;SDS011;64373;46.136;8.830;2023-07-29T08:37:48;5.05;;;4.60;;
75760;SDS011;64373;46.136;8.830;2023-07-29T08:40:14;4.28;;;3.88;;
75760;SDS011;64373;46.136;8.830;2023-07-29T08:42:39;4.22;;;3.83;;
75760;SDS011;64373;46.136;8.830;2023-07-29T08:45:07;4.68;;;4.28;;
75760;SDS011;64373;46.136;8.830;2023-07-29T08:47:33;4.63;;;4.13;;
75760;SDS011;64373;46.136;8.830;2023-07-29T08:49:59;5.88;;;5.28;;
75760;SDS011;64373;46.136;8.830;2023-07-29T08:52:26;4.85;;;3.88;;
75760;SDS011;64373;46.136;8.830;2023-07-29T08:54:52;6.30;;;5.13;;
75760;SDS011;64373;46.136;8.830;2023-07-29T08:57:18;8.07;;;4.95;;
75760;SDS011;64373;46.136;8.830;2023-07-29T08:59:45;5.32;;;4.50;;
75760;SDS011;64373;46.136;8.830;2023-07-29T09:02:11;4.80;;;4.35;;
75760;SDS011;64373;46.136;8.830;2023-07-29T09:04:37;5.20;;;4.70;;
75760;SDS011;64373;46.136;8.830;2023-07-29T09:07:03;5.43;;;4.75;;
75760;SDS011;64373;46.136;8.830;2023-07-29T09:09:31;5.20;;;4.68;;
75760;SDS011;64373;46.136;8.830;2023-07-29T09:11:57;5.13;;;4.63;;
75760;SDS011;64373;46.136;8.830;2023-07-29T09:14:24;4.60;;;3.83;;
75760;SDS011;64373;46.136;8.830;2023-07-29T09:16:56;5.20;;;4.70;;
75760;SDS011;64373;46.136;8.830;2023-07-29T09:19:24;5.70;;;4.35;;
75760;SDS011;64373;46.136;8.830;2023-07-29T09:21:52;4.57;;;3.97;;
75760;SDS011;64373;46.136;8.830;2023-07-29T09:24:17;5.45;;;4.72;;
75760;SDS011;64373;46.136;8.830;2023-07-29T09:26:49;5.22;;;4.60;;
75760;SDS011;64373;46.136;8.830;2023-07-29T09:29:15;4.60;;;4.20;;
75760;SDS011;64373;46.136;8.830;2023-07-29T09:31:41;4.60;;;4.20;;
75760;SDS011;64373;46.136;8.830;2023-07-29T09:34:06;4.10;;;3.70;;
75760;SDS011;64373;46.136;8.830;2023-07-29T09:36:32;4.25;;;3.70;;
75760;SDS011;64373;46.136;8.830;2023-07-29T09:38:58;4.78;;;4.25;;
75760;SDS011;64373;46.136;8.830;2023-07-29T09:41:28;4.22;;;3.83;;
75760;SDS011;64373;46.136;8.830;2023-07-29T09:44:01;5.68;;;4.20;;
75760;SDS011;64373;46.136;8.830;2023-07-29T09:46:45;4.68;;;4.22;;
75760;SDS011;64373;46.136;8.830;2023-07-29T09:49:11;4.90;;;4.40;;
75760;SDS011;64373;46.136;8.830;2023-07-29T09:51:37;4.60;;;4.13;;
75760;SDS011;64373;46.136;8.830;2023-07-29T09:54:04;4.90;;;4.50;;
75760;SDS011;64373;46.136;8.830;2023-07-29T09:56:30;4.55;;;4.15;;
75760;SDS011;64373;46.136;8.830;2023-07-29T09:58:59;6.40;;;4.57;;
75760;SDS011;64373;46.136;8.830;2023-07-29T10:01:34;4.93;;;4.53;;
75760;SDS011;64373;46.136;8.830;2023-07-29T10:04:19;5.93;;;5.38;;
75760;SDS011;64373;46.136;8.830;2023-07-29T10:07:42;6.25;;;4.88;;
75760;SDS011;64373;46.136;8.830;2023-07-29T10:10:08;5.22;;;4.72;;
75760;SDS011;64373;46.136;8.830;2023-07-29T10:12:35;4.82;;;4.43;;
75760;SDS011;64373;46.136;8.830;2023-07-29T10:15:08;4.00;;;3.65;;
75760;SDS011;64373;46.136;8.830;2023-07-29T10:17:35;4.10;;;3.80;;
75760;SDS011;64373;46.136;8.830;2023-07-29T10:20:09;4.20;;;3.80;;
75760;SDS011;64373;46.136;8.830;2023-07-29T10:25:03;4.07;;;3.67;;
75760;SDS011;64373;46.136;8.830;2023-07-29T10:27:33;4.85;;;4.45;;
75760;SDS011;64373;46.136;8.830;2023-07-29T10:30:05;4.18;;;3.70;;
75760;SDS011;64373;46.136;8.830;2023-07-29T10:32:32;4.05;;;3.67;;
75760;SDS011;64373;46.136;8.830;2023-07-29T10:34:58;6.47;;;3.80;;
75760;SDS011;64373;46.136;8.830;2023-07-29T10:37:23;3.58;;;3.20;;
75760;SDS011;64373;46.136;8.830;2023-07-29T10:39:53;3.50;;;3.20;;
75760;SDS011;64373;46.136;8.830;2023-07-29T10:42:19;3.78;;;3.47;;
75760;SDS011;64373;46.136;8.830;2023-07-29T10:44:45;5.18;;;3.55;;
75760;SDS011;64373;46.136;8.830;2023-07-29T10:49:49;4.10;;;3.58;;
75760;SDS011;64373;46.136;8.830;2023-07-29T10:53:02;4.10;;;3.70;;
75760;SDS011;64373;46.136;8.830;2023-07-29T10:55:25;4.20;;;3.80;;
75760;SDS011;64373;46.136;8.830;2023-07-29T10:57:52;4.38;;;3.95;;
75760;SDS011;64373;46.136;8.830;2023-07-29T11:00:21;4.40;;;4.07;;
75760;SDS011;64373;46.136;8.830;2023-07-29T11:02:56;4.78;;;3.95;;
75760;SDS011;64373;46.136;8.830;2023-07-29T11:05:25;4.18;;;3.78;;
75760;SDS011;64373;46.136;8.830;2023-07-29T11:07:51;4.45;;;3.97;;
75760;SDS011;64373;46.136;8.830;2023-07-29T11:10:17;4.68;;;4.28;;
75760;SDS011;64373;46.136;8.830;2023-07-29T11:12:49;4.43;;;4.03;;
75760;SDS011;64373;46.136;8.830;2023-07-29T11:17:55;4.38;;;3.90;;
75760;SDS011;64373;46.136;8.830;2023-07-29T11:20:25;4.75;;;3.90;;
75760;SDS011;64373;46.136;8.830;2023-07-29T11:25:27;4.10;;;3.70;;
75760;SDS011;64373;46.136;8.830;2023-07-29T11:27:55;4.78;;;3.83;;
75760;SDS011;64373;46.136;8.830;2023-07-29T11:30:22;4.63;;;4.22;;
75760;SDS011;64373;46.136;8.830;2023-07-29T11:32:58;3.95;;;3.50;;
75760;SDS011;64373;46.136;8.830;2023-07-29T11:35:24;4.57;;;3.75;;
75760;SDS011;64373;46.136;8.830;2023-07-29T11:37:50;5.07;;;4.60;;
75760;SDS011;64373;46.136;8.830;2023-07-29T11:40:18;4.05;;;3.65;;
75760;SDS011;64373;46.136;8.830;2023-07-29T11:42:48;5.00;;;4.15;;
75760;SDS011;64373;46.136;8.830;2023-07-29T11:45:18;4.78;;;4.28;;
75760;SDS011;64373;46.136;8.830;2023-07-29T11:47:44;4.30;;;3.90;;
75760;SDS011;64373;46.136;8.830;2023-07-29T11:50:11;4.53;;;3.80;;
75760;SDS011;64373;46.136;8.830;2023-07-29T11:52:41;4.82;;;4.00;;
75760;SDS011;64373;46.136;8.830;2023-07-29T11:55:11;4.80;;;3.67;;
75760;SDS011;64373;46.136;8.830;2023-07-29T11:57:38;3.83;;;3.50;;
75760;SDS011;64373;46.136;8.830;2023-07-29T12:00:05;4.30;;;3.90;;
75760;SDS011;64373;46.136;8.830;2023-07-29T12:02:36;4.95;;;3.60;;
75760;SDS011;64373;46.136;8.830;2023-07-29T12:05:02;4.40;;;4.00;;
75760;SDS011;64373;46.136;8.830;2023-07-29T12:07:29;4.50;;;4.10;;
75760;SDS011;64373;46.136;8.830;2023-07-29T12:09:55;4.38;;;3.97;;
75760;SDS011;64373;46.136;8.830;2023-07-29T12:12:22;5.95;;;4.25;;
75760;SDS011;64373;46.136;8.830;2023-07-29T12:14:48;4.40;;;4.00;;
75760;SDS011;64373;46.136;8.830;2023-07-29T12:17:14;6.18;;;3.75;;
75760;SDS011;64373;46.136;8.830;2023-07-29T12:19:40;5.22;;;4.43;;
75760;SDS011;64373;46.136;8.830;2023-07-29T12:22:10;4.50;;;4.10;;
75760;SDS011;64373;46.136;8.830;2023-07-29T12:24:36;5.60;;;4.50;;
75760;SDS011;64373;46.136;8.830;2023-07-29T12:27:14;4.50;;;4.05;;
75760;SDS011;64373;46.136;8.830;2023-07-29T12:29:43;5.60;;;4.35;;
75760;SDS011;64373;46.136;8.830;2023-07-29T12:32:18;4.25;;;3.85;;
75760;SDS011;64373;46.136;8.830;2023-07-29T12:34:49;5.38;;;4.15;;
75760;SDS011;64373;46.136;8.830;2023-07-29T12:37:14;4.55;;;4.00;;
75760;SDS011;64373;46.136;8.830;2023-07-29T12:39:41;5.00;;;3.92;;
75760;SDS011;64373;46.136;8.830;2023-07-29T12:42:07;4.22;;;3.83;;
75760;SDS011;64373;46.136;8.830;2023-07-29T12:44:34;4.40;;;4.00;;
75760;SDS011;64373;46.136;8.830;2023-07-29T12:47:01;4.15;;;3.75;;
75760;SDS011;64373;46.136;8.830;2023-07-29T12:49:28;4.28;;;3.53;;
75760;SDS011;64373;46.136;8.830;2023-07-29T12:51:55;4.57;;;3.95;;
75760;SDS011;64373;46.136;8.830;2023-07-29T12:54:32;4.80;;;4.10;;
75760;SDS011;64373;46.136;8.830;2023-07-29T12:57:09;4.38;;;3.95;;
75760;SDS011;64373;46.136;8.830;2023-07-29T12:59:34;4.20;;;3.70;;
75760;SDS011;64373;46.136;8.830;2023-07-29T13:02:00;5.07;;;4.13;;
75760;SDS011;64373;46.136;8.830;2023-07-29T13:04:25;4.60;;;4.10;;
75760;SDS011;64373;46.136;8.830;2023-07-29T13:06:51;3.67;;;3.38;;
75760;SDS011;64373;46.136;8.830;2023-07-29T13:09:17;4.40;;;3.65;;
75760;SDS011;64373;46.136;8.830;2023-07-29T13:11:44;3.45;;;3.15;;
75760;SDS011;64373;46.136;8.830;2023-07-29T13:14:12;3.83;;;3.50;;
75760;SDS011;64373;46.136;8.830;2023-07-29T13:16:39;3.70;;;3.40;;
75760;SDS011;64373;46.136;8.830;2023-07-29T13:19:05;4.80;;;4.30;;
75760;SDS011;64373;46.136;8.830;2023-07-29T13:21:31;5.13;;;3.75;;
75760;SDS011;64373;46.136;8.830;2023-07-29T13:23:57;4.07;;;3.47;;
75760;SDS011;64373;46.136;8.830;2023-07-29T13:26:23;4.07;;;3.72;;
75760;SDS011;64373;46.136;8.830;2023-07-29T13:28:49;4.28;;;3.60;;
75760;SDS011;64373;46.136;8.830;2023-07-29T13:31:24;6.13;;;4.03;;
75760;SDS011;64373;46.136;8.830;2023-07-29T13:33:49;4.38;;;4.05;;
75760;SDS011;64373;46.136;8.830;2023-07-29T13:36:15;5.10;;;4.00;;
75760;SDS011;64373;46.136;8.830;2023-07-29T13:38:41;5.93;;;4.25;;
75760;SDS011;64373;46.136;8.830;2023-07-29T13:41:12;4.72;;;4.20;;
75760;SDS011;64373;46.136;8.830;2023-07-29T13:43:43;5.28;;;4.30;;
75760;SDS011;64373;46.136;8.830;2023-07-29T13:46:09;4.93;;;4.50;;
75760;SDS011;64373;46.136;8.830;2023-07-29T13:48:34;6.15;;;4.55;;
75760;SDS011;64373;46.136;8.830;2023-07-29T13:51:11;6.35;;;4.57;;
75760;SDS011;64373;46.136;8.830;2023-07-29T13:56:34;4.90;;;4.45;;
75760;SDS011;64373;46.136;8.830;2023-07-29T13:59:03;6.35;;;4.88;;
75760;SDS011;64373;46.136;8.830;2023-07-29T14:01:33;4.68;;;4.28;;
75760;SDS011;64373;46.136;8.830;2023-07-29T14:04:40;4.25;;;3.85;;
75760;SDS011;64373;46.136;8.830;2023-07-29T14:07:06;3.85;;;3.55;;
75760;SDS011;64373;46.136;8.830;2023-07-29T14:09:32;3.45;;;3.15;;
75760;SDS011;64373;46.136;8.830;2023-07-29T14:11:58;3.50;;;3.20;;
75760;SDS011;64373;46.136;8.830;2023-07-29T14:14:26;4.22;;;3.83;;
75760;SDS011;64373;46.136;8.830;2023-07-29T14:16:52;4.88;;;4.43;;
75760;SDS011;64373;46.136;8.830;2023-07-29T14:19:18;4.75;;;4.35;;
75760;SDS011;64373;46.136;8.830;2023-07-29T14:21:43;5.13;;;4.20;;
75760;SDS011;64373;46.136;8.830;2023-07-29T14:24:09;4.22;;;3.80;;
75760;SDS011;64373;46.136;8.830;2023-07-29T14:26:34;5.32;;;4.85;;
75760;SDS011;64373;46.136;8.830;2023-07-29T14:29:00;4.40;;;4.00;;
75760;SDS011;64373;46.136;8.830;2023-07-29T14:31:25;5.63;;;4.22;;
75760;SDS011;64373;46.136;8.830;2023-07-29T14:33:51;4.70;;;4.30;;
75760;SDS011;64373;46.136;8.830;2023-07-29T14:36:16;5.63;;;4.65;;
75760;SDS011;64373;46.136;8.830;2023-07-29T14:38:42;5.68;;;4.50;;
75760;SDS011;64373;46.136;8.830;2023-07-29T14:41:08;4.85;;;4.38;;
75760;SDS011;64373;46.136;8.830;2023-07-29T14:43:34;4.72;;;4.10;;
75760;SDS011;64373;46.136;8.830;2023-07-29T14:46:00;5.28;;;4.32;;
75760;SDS011;64373;46.136;8.830;2023-07-29T14:48:26;4.95;;;4.32;;
75760;SDS011;64373;46.136;8.830;2023-07-29T14:50:59;5.38;;;4.70;;
75760;SDS011;64373;46.136;8.830;2023-07-29T14:54:03;4.95;;;4.47;;
75760;SDS011;64373;46.136;8.830;2023-07-29T14:56:32;5.53;;;4.40;;
75760;SDS011;64373;46.136;8.830;2023-07-29T14:58:57;4.03;;;3.63;;
75760;SDS011;64373;46.136;8.830;2023-07-29T15:04:18;3.97;;;3.67;;
75760;SDS011;64373;46.136;8.830;2023-07-29T15:06:44;4.95;;;4.47;;
75760;SDS011;64373;46.136;8.830;2023-07-29T15:09:10;4.50;;;4.10;;
75760;SDS011;64373;46.136;8.830;2023-07-29T15:11:35;4.22;;;3.83;;
75760;SDS011;64373;46.136;8.830;2023-07-29T15:14:02;7.13;;;5.80;;
75760;SDS011;64373;46.136;8.830;2023-07-29T15:16:31;6.18;;;5.05;;
75760;SDS011;64373;46.136;8.830;2023-07-29T15:25:31;4.45;;;4.05;;
75760;SDS011;64373;46.136;8.830;2023-07-29T15:28:03;4.32;;;3.92;;